createdAt,value
2022-10-23T00:00:43.109Z,14.07
2022-10-23T00:03:11.060Z,15.30
2022-10-23T00:05:40.436Z,14.38
2022-10-23T00:08:08.771Z,13.35
2022-10-23T00:10:36.720Z,14.27
2022-10-23T00:13:04.579Z,12.45
2022-10-23T00:15:32.539Z,11.55
2022-10-23T00:18:01.746Z,13.48
2022-10-23T00:20:29.665Z,13.27
2022-10-23T00:22:57.536Z,13.43
2022-10-23T00:25:25.479Z,13.80
2022-10-23T00:27:53.347Z,13.05
2022-10-23T00:30:21.372Z,13.75
2022-10-23T00:32:49.219Z,12.75
2022-10-23T00:35:18.545Z,15.68
2022-10-23T00:37:46.449Z,12.48
2022-10-23T00:40:14.375Z,12.27
2022-10-23T00:42:42.637Z,12.50
2022-10-23T00:45:21.133Z,12.02
2022-10-23T00:47:49.308Z,11.70
2022-10-23T00:50:18.762Z,13.38
2022-10-23T00:52:48.069Z,12.05
2022-10-23T00:55:16.394Z,14.15
2022-10-23T00:57:45.142Z,13.02
2022-10-23T01:00:16.186Z,13.25
2022-10-23T01:02:44.503Z,12.10
2022-10-23T01:05:14.081Z,11.82
2022-10-23T01:07:49.371Z,11.10
2022-10-23T01:10:19.340Z,11.32
2022-10-23T01:12:50.685Z,12.32
2022-10-23T01:15:23.148Z,11.52
2022-10-23T01:17:55.164Z,13.13
2022-10-23T01:20:32.918Z,12.65
2022-10-23T01:23:11.108Z,11.90
2022-10-23T01:25:52.028Z,11.65
2022-10-23T01:28:23.420Z,11.65
2022-10-23T01:30:51.357Z,12.52
2022-10-23T01:33:22.590Z,11.60
2022-10-23T01:35:53.394Z,10.90
2022-10-23T01:38:23.607Z,9.57
2022-10-23T01:40:57.623Z,10.23
2022-10-23T01:43:28.511Z,11.38
2022-10-23T01:45:57.860Z,9.80
2022-10-23T01:48:28.454Z,10.50
2022-10-23T01:50:57.691Z,9.32
2022-10-23T01:53:26.322Z,10.65
2022-10-23T01:55:54.214Z,10.05
2022-10-23T01:58:26.407Z,10.25
2022-10-23T02:00:54.654Z,9.57
2022-10-23T02:03:22.590Z,12.25
2022-10-23T02:05:50.457Z,9.63
2022-10-23T02:08:18.410Z,9.65
2022-10-23T02:10:50.598Z,10.05
2022-10-23T02:13:21.423Z,10.05
2022-10-23T02:15:51.479Z,10.68
2022-10-23T02:18:26.432Z,9.60
2022-10-23T02:20:56.479Z,9.82
2022-10-23T02:23:30.002Z,10.85
2022-10-23T02:25:59.188Z,9.20
2022-10-23T02:28:28.916Z,9.60
2022-10-23T02:31:01.280Z,10.68
2022-10-23T02:33:31.943Z,9.68
2022-10-23T02:35:59.815Z,10.65
2022-10-23T02:38:35.197Z,11.55
2022-10-23T02:41:23.348Z,9.88
2022-10-23T02:44:03.665Z,10.57
2022-10-23T02:46:37.443Z,9.52
2022-10-23T02:49:11.634Z,11.60
2022-10-23T02:51:45.390Z,10.60
2022-10-23T02:54:15.906Z,9.55
2022-10-23T02:56:45.501Z,10.25
2022-10-23T02:59:17.995Z,8.88
2022-10-23T03:01:50.069Z,8.90
2022-10-23T03:04:18.106Z,9.13
2022-10-23T03:06:46.176Z,10.50
2022-10-23T03:09:18.009Z,9.35
2022-10-23T03:11:45.995Z,8.85
2022-10-23T03:14:14.192Z,9.10
2022-10-23T03:16:42.115Z,9.27
2022-10-23T03:21:45.534Z,9.73
2022-10-23T03:24:13.561Z,9.68
2022-10-23T03:26:44.219Z,8.27
2022-10-23T03:29:12.096Z,8.18
2022-10-23T03:31:45.898Z,9.70
2022-10-23T03:34:15.747Z,8.57
2022-10-23T03:36:43.959Z,9.02
2022-10-23T03:39:12.071Z,8.57
2022-10-23T03:41:39.968Z,10.55
2022-10-23T03:44:08.481Z,9.50
2022-10-23T03:46:36.409Z,8.68
2022-10-23T03:49:05.715Z,9.70
2022-10-23T03:51:34.989Z,8.05
2022-10-23T03:54:03.005Z,8.65
2022-10-23T03:56:30.924Z,8.63
2022-10-23T03:58:58.775Z,8.68
2022-10-23T04:01:27.931Z,9.15
2022-10-23T04:03:56.189Z,7.60
2022-10-23T04:06:26.760Z,9.25
2022-10-23T04:08:59.011Z,9.80
2022-10-23T04:11:26.967Z,8.00
2022-10-23T04:13:54.855Z,8.38
2022-10-23T04:16:24.085Z,11.13
2022-10-23T04:18:52.160Z,8.20
2022-10-23T04:21:20.074Z,8.48
2022-10-23T04:23:48.033Z,8.35
2022-10-23T04:26:19.795Z,8.40
2022-10-23T04:28:47.726Z,8.30
2022-10-23T04:31:16.783Z,7.63
2022-10-23T04:33:44.899Z,8.48
2022-10-23T04:36:26.480Z,8.68
2022-10-23T04:38:54.458Z,8.98
2022-10-23T04:41:23.880Z,7.82
2022-10-23T04:43:51.835Z,8.43
2022-10-23T04:46:19.939Z,7.32
2022-10-23T04:48:49.273Z,8.80
2022-10-23T04:51:28.661Z,7.28
2022-10-23T04:54:13.155Z,8.95
2022-10-23T04:56:44.965Z,8.00
2022-10-23T04:59:17.071Z,8.32
2022-10-23T05:01:45.779Z,7.90
2022-10-23T05:04:14.825Z,7.63
2022-10-23T05:07:02.864Z,9.10
2022-10-23T05:09:43.671Z,8.75
2022-10-23T05:12:39.881Z,7.72
2022-10-23T05:15:08.609Z,8.30
2022-10-23T05:17:37.347Z,8.60
2022-10-23T05:20:06.905Z,8.18
2022-10-23T05:22:36.843Z,8.88
2022-10-23T05:25:08.148Z,6.93
2022-10-23T05:27:36.035Z,7.20
2022-10-23T05:30:11.234Z,7.18
2022-10-23T05:32:39.274Z,7.13
2022-10-23T05:35:08.891Z,7.53
2022-10-23T05:37:38.605Z,7.10
2022-10-23T05:40:11.395Z,9.13
2022-10-23T05:42:41.828Z,7.75
2022-10-23T05:45:13.063Z,8.57
2022-10-23T05:47:46.944Z,7.03
2022-10-23T05:50:47.078Z,7.28
2022-10-23T05:53:26.512Z,8.27
2022-10-23T05:56:17.681Z,7.18
2022-10-23T05:58:57.268Z,6.38
2022-10-23T06:01:43.602Z,6.30
2022-10-23T06:04:14.852Z,6.43
2022-10-23T06:07:05.626Z,7.38
2022-10-23T06:09:33.670Z,7.63
2022-10-23T06:12:02.545Z,6.82
2022-10-23T06:14:32.351Z,6.05
2022-10-23T06:17:01.686Z,6.38
2022-10-23T06:19:29.576Z,7.65
2022-10-23T06:21:58.628Z,7.97
2022-10-23T06:24:40.657Z,5.72
2022-10-23T06:27:12.928Z,6.35
2022-10-23T06:29:45.201Z,7.13
2022-10-23T06:32:14.461Z,5.95
2022-10-23T06:34:47.619Z,6.50
2022-10-23T06:37:15.548Z,8.10
2022-10-23T06:39:46.590Z,6.55
2022-10-23T06:42:17.700Z,7.32
2022-10-23T06:45:11.501Z,7.20
2022-10-23T06:48:01.111Z,6.93
2022-10-23T06:50:59.814Z,7.35
2022-10-23T06:53:36.788Z,8.23
2022-10-23T06:56:17.085Z,7.20
2022-10-23T06:58:45.031Z,6.63
2022-10-23T07:01:16.774Z,6.75
2022-10-23T07:03:48.686Z,6.45
2022-10-23T07:06:20.599Z,6.00
2022-10-23T07:08:49.673Z,6.50
2022-10-23T07:11:36.040Z,6.53
2022-10-23T07:14:03.999Z,6.07
2022-10-23T07:16:32.644Z,6.80
2022-10-23T07:19:02.206Z,6.47
2022-10-23T07:21:31.121Z,6.32
2022-10-23T07:24:17.948Z,5.97
2022-10-23T07:26:46.177Z,6.32
2022-10-23T07:29:15.225Z,7.72
2022-10-23T07:31:43.937Z,6.20
2022-10-23T07:34:48.134Z,6.18
2022-10-23T07:37:24.848Z,6.18
2022-10-23T07:39:52.905Z,6.63
2022-10-23T07:42:20.844Z,6.95
2022-10-23T07:44:49.725Z,6.28
2022-10-23T07:47:17.874Z,5.75
2022-10-23T07:49:51.096Z,6.57
2022-10-23T07:52:21.332Z,6.05
2022-10-23T07:55:10.380Z,6.28
2022-10-23T07:57:41.667Z,5.95
2022-10-23T08:00:19.122Z,5.75
2022-10-23T08:02:56.690Z,6.45
2022-10-23T08:05:26.096Z,6.63
2022-10-23T08:07:59.082Z,6.18
2022-10-23T08:10:27.050Z,7.75
2022-10-23T08:12:55.154Z,6.53
2022-10-23T08:15:36.556Z,5.88
2022-10-23T08:18:13.481Z,6.43
2022-10-23T08:20:47.801Z,6.32
2022-10-23T08:23:18.428Z,8.00
2022-10-23T08:25:46.481Z,7.07
2022-10-23T08:28:16.748Z,6.03
2022-10-23T08:30:53.814Z,6.25
2022-10-23T08:33:21.849Z,6.30
2022-10-23T08:35:51.213Z,5.70
2022-10-23T08:38:26.665Z,5.65
2022-10-23T08:40:54.828Z,8.95
2022-10-23T08:43:52.760Z,7.18
2022-10-23T08:46:35.364Z,7.70
2022-10-23T08:49:32.248Z,7.05
2022-10-23T08:52:11.720Z,7.38
2022-10-23T08:54:54.104Z,6.32
2022-10-23T08:57:23.096Z,6.75
2022-10-23T08:59:53.673Z,5.40
2022-10-23T09:02:23.126Z,8.27
2022-10-23T09:04:52.636Z,5.45
2022-10-23T09:07:29.530Z,5.22
2022-10-23T09:10:03.836Z,6.00
2022-10-23T09:12:31.975Z,5.85
2022-10-23T09:15:06.565Z,5.75
2022-10-23T09:17:35.670Z,7.30
2022-10-23T09:20:13.921Z,5.35
2022-10-23T09:22:43.543Z,6.10
2022-10-23T09:25:12.445Z,5.60
2022-10-23T09:27:41.679Z,5.53
2022-10-23T09:30:10.747Z,7.78
2022-10-23T09:32:38.938Z,6.85
2022-10-23T09:35:08.021Z,7.72
2022-10-23T09:37:37.496Z,6.25
2022-10-23T09:40:19.357Z,5.47
2022-10-23T09:42:55.312Z,5.88
2022-10-23T09:45:28.683Z,4.95
2022-10-23T09:48:13.586Z,6.35
2022-10-23T09:50:49.274Z,6.30
2022-10-23T09:53:18.698Z,8.18
2022-10-23T09:55:54.028Z,7.47
2022-10-23T09:58:23.152Z,7.82
2022-10-23T10:00:53.407Z,6.65
2022-10-23T10:03:38.272Z,6.63
2022-10-23T10:06:22.737Z,6.40
2022-10-23T10:08:51.901Z,7.10
2022-10-23T10:11:22.764Z,6.05
2022-10-23T10:14:00.615Z,5.57
2022-10-23T10:16:36.729Z,5.82
2022-10-23T10:19:07.201Z,7.38
2022-10-23T10:21:37.362Z,6.05
2022-10-23T10:24:07.260Z,6.28
2022-10-23T10:26:40.641Z,6.22
2022-10-23T10:29:15.135Z,8.00
2022-10-23T10:31:52.204Z,6.65
2022-10-23T10:34:25.327Z,5.90
2022-10-23T10:36:54.410Z,5.05
2022-10-23T10:39:28.212Z,5.85
2022-10-23T10:42:23.671Z,8.90
2022-10-23T10:45:04.404Z,5.80
2022-10-23T10:47:34.182Z,5.80
2022-10-23T10:50:07.885Z,5.93
2022-10-23T10:52:57.640Z,5.88
2022-10-23T10:55:27.806Z,6.70
2022-10-23T10:58:00.275Z,5.80
2022-10-23T11:00:28.215Z,8.63
2022-10-23T11:02:58.970Z,33.10
2022-10-23T11:05:31.026Z,23.83
2022-10-23T11:08:01.287Z,42.53
2022-10-23T11:10:29.373Z,33.47
2022-10-23T11:12:58.599Z,27.77
2022-10-23T11:15:29.532Z,25.52
2022-10-23T11:17:59.527Z,27.15
2022-10-23T11:20:45.089Z,25.88
2022-10-23T11:23:31.199Z,25.55
2022-10-23T11:26:04.374Z,23.95
2022-10-23T11:28:42.475Z,21.80
2022-10-23T11:31:17.094Z,22.83
2022-10-23T11:34:13.237Z,25.98
2022-10-23T11:36:47.011Z,30.77
2022-10-23T11:39:21.736Z,30.77
2022-10-23T11:41:51.477Z,26.35
2022-10-23T11:44:29.189Z,27.83
2022-10-23T11:47:03.541Z,27.30
2022-10-23T11:49:31.390Z,21.88
2022-10-23T11:52:02.942Z,24.35
2022-10-23T11:54:30.839Z,27.15
2022-10-23T11:57:12.812Z,19.23
2022-10-23T11:59:53.725Z,26.75
2022-10-23T12:02:27.551Z,19.45
2022-10-23T12:04:55.646Z,18.52
2022-10-23T12:07:25.237Z,13.70
2022-10-23T12:09:53.923Z,17.65
2022-10-23T12:12:29.547Z,18.77
2022-10-23T12:15:22.150Z,16.25
2022-10-23T12:17:50.534Z,16.33
2022-10-23T12:20:40.448Z,17.73
2022-10-23T12:23:22.121Z,18.77
2022-10-23T12:26:05.934Z,21.17
2022-10-23T12:28:36.192Z,16.30
2022-10-23T12:31:15.449Z,15.07
2022-10-23T12:33:45.696Z,14.52
2022-10-23T12:36:27.853Z,18.73
2022-10-23T12:38:58.498Z,17.25
2022-10-23T12:41:27.333Z,19.10
2022-10-23T12:43:56.343Z,14.82
2022-10-23T12:46:34.989Z,16.77
2022-10-23T12:49:05.659Z,13.73
2022-10-23T12:51:34.434Z,15.20
2022-10-23T12:54:02.542Z,14.15
2022-10-23T12:56:35.750Z,13.27
2022-10-23T12:59:04.046Z,14.88
2022-10-23T13:01:34.404Z,11.20
2022-10-23T13:04:09.505Z,15.13
2022-10-23T13:06:37.505Z,11.80
2022-10-23T13:09:05.442Z,13.63
2022-10-23T13:11:50.428Z,15.23
2022-10-23T13:14:29.893Z,11.20
2022-10-23T13:17:02.223Z,8.60
2022-10-23T13:19:30.294Z,11.35
2022-10-23T13:21:58.408Z,13.38
2022-10-23T13:24:27.278Z,9.93
2022-10-23T13:26:55.625Z,10.98
2022-10-23T13:31:53.722Z,11.23
2022-10-23T13:34:27.799Z,9.55
2022-10-23T13:37:02.354Z,11.30
2022-10-23T13:39:31.567Z,13.20
2022-10-23T13:42:02.608Z,11.82
2022-10-23T13:44:30.624Z,9.43
2022-10-23T13:46:58.497Z,10.35
2022-10-23T13:49:27.738Z,10.43
2022-10-23T13:52:00.970Z,11.38
2022-10-23T13:54:29.544Z,11.07
2022-10-23T13:56:57.722Z,13.32
2022-10-23T13:59:25.657Z,15.38
2022-10-23T14:01:53.750Z,12.38
2022-10-23T14:04:22.064Z,11.07
2022-10-23T14:06:54.745Z,14.85
2022-10-23T14:09:22.680Z,13.35
2022-10-23T14:11:50.558Z,10.57
2022-10-23T14:14:18.442Z,13.48
2022-10-23T14:16:46.396Z,18.73
2022-10-23T14:19:14.270Z,13.70
2022-10-23T14:21:42.148Z,15.70
2022-10-23T14:24:11.507Z,11.57
2022-10-23T14:26:39.367Z,9.98
2022-10-23T14:29:10.185Z,17.02
2022-10-23T14:31:41.910Z,11.30
2022-10-23T14:34:10.151Z,15.77
2022-10-23T14:36:49.493Z,11.52
2022-10-23T14:39:20.342Z,10.95
2022-10-23T14:41:48.317Z,10.85
2022-10-23T14:44:16.220Z,10.82
2022-10-23T14:46:44.103Z,9.82
2022-10-23T14:49:12.042Z,9.90
2022-10-23T14:51:39.955Z,8.38
2022-10-23T14:54:08.467Z,7.88
2022-10-23T14:56:40.533Z,8.70
2022-10-23T14:59:09.190Z,11.75
2022-10-23T15:01:39.508Z,9.43
2022-10-23T15:04:10.310Z,9.73
2022-10-23T15:06:38.781Z,8.25
2022-10-23T15:09:06.649Z,9.52
2022-10-23T15:11:34.533Z,7.70
2022-10-23T15:14:03.755Z,6.72
2022-10-23T15:16:31.658Z,7.43
2022-10-23T15:18:59.566Z,10.15
2022-10-23T15:21:27.447Z,8.63
2022-10-23T15:23:55.340Z,10.35
2022-10-23T15:26:25.421Z,12.68
2022-10-23T15:28:54.228Z,8.98
2022-10-23T15:31:42.375Z,10.60
2022-10-23T15:34:10.743Z,10.13
2022-10-23T15:36:38.657Z,8.05
2022-10-23T15:39:07.857Z,7.20
2022-10-23T15:41:36.503Z,7.68
2022-10-23T15:44:04.976Z,8.32
2022-10-23T15:46:34.369Z,7.53
2022-10-23T15:49:02.736Z,7.90
2022-10-23T15:51:30.681Z,9.80
2022-10-23T15:53:58.530Z,8.20
2022-10-23T15:56:26.437Z,10.07
2022-10-23T15:58:54.337Z,7.85
2022-10-23T16:01:22.290Z,8.93
2022-10-23T16:03:51.676Z,21.73
2022-10-23T16:06:19.812Z,34.45
2022-10-23T16:08:47.787Z,31.10
2022-10-23T16:11:17.235Z,30.85
2022-10-23T16:13:45.308Z,26.67
2022-10-23T16:16:13.471Z,23.85
2022-10-23T16:18:41.634Z,20.92
2022-10-23T16:21:17.096Z,22.38
2022-10-23T16:23:45.080Z,18.33
2022-10-23T16:26:13.105Z,16.83
2022-10-23T16:28:41.014Z,18.83
2022-10-23T16:31:10.212Z,22.25
2022-10-23T16:33:38.192Z,11.65
2022-10-23T16:36:06.510Z,16.40
2022-10-23T16:38:56.240Z,16.92
2022-10-23T16:41:44.126Z,19.98
2022-10-23T16:44:18.456Z,14.07
2022-10-23T16:46:56.972Z,19.35
2022-10-23T16:49:24.957Z,18.98
2022-10-23T16:51:52.895Z,18.70
2022-10-23T16:54:22.437Z,14.52
2022-10-23T16:56:50.448Z,14.00
2022-10-23T16:59:23.985Z,15.43
2022-10-23T17:01:53.171Z,14.60
2022-10-23T17:04:21.322Z,12.43
2022-10-23T17:06:49.525Z,17.92
2022-10-23T17:09:19.282Z,20.98
2022-10-23T17:11:51.008Z,13.20
2022-10-23T17:14:21.033Z,12.40
2022-10-23T17:16:50.057Z,15.95
2022-10-23T17:19:44.984Z,12.75
2022-10-23T17:22:10.493Z,14.18
2022-10-23T17:24:38.581Z,12.20
2022-10-23T17:27:08.896Z,12.88
2022-10-23T17:29:36.820Z,17.58
2022-10-23T17:32:04.887Z,11.05
2022-10-23T17:34:34.843Z,11.32
2022-10-23T17:37:02.950Z,11.10
2022-10-23T17:39:30.878Z,12.05
2022-10-23T17:41:58.881Z,15.32
2022-10-23T17:44:29.217Z,14.35
2022-10-23T17:46:57.220Z,8.68
2022-10-23T17:49:25.419Z,10.07
2022-10-23T17:51:53.769Z,8.65
2022-10-23T17:54:21.842Z,16.17
2022-10-23T17:56:49.876Z,10.55
2022-10-23T17:59:19.362Z,13.63
2022-10-23T18:01:48.986Z,8.75
2022-10-23T18:04:17.702Z,10.30
2022-10-23T18:06:46.715Z,10.98
2022-10-23T18:09:14.629Z,11.23
2022-10-23T18:11:45.590Z,10.35
2022-10-23T18:14:16.115Z,12.02
2022-10-23T18:16:45.575Z,11.88
2022-10-23T18:19:15.300Z,9.68
2022-10-23T18:21:45.552Z,11.13
2022-10-23T18:24:13.541Z,10.20
2022-10-23T18:26:42.281Z,7.18
2022-10-23T18:29:10.529Z,10.70
2022-10-23T18:31:38.541Z,10.77
2022-10-23T18:34:08.430Z,8.82
2022-10-23T18:36:38.776Z,8.40
2022-10-23T18:39:07.326Z,10.13
2022-10-23T18:41:36.182Z,8.95
2022-10-23T18:44:05.333Z,9.50
2022-10-23T18:46:33.719Z,7.60
2022-10-23T18:49:01.574Z,8.43
2022-10-23T18:51:31.967Z,8.65
2022-10-23T18:54:02.876Z,8.75
2022-10-23T18:56:31.002Z,6.80
2022-10-23T18:59:02.819Z,7.00
2022-10-23T19:01:31.018Z,7.55
2022-10-23T19:04:00.276Z,9.68
2022-10-23T19:06:28.320Z,8.43
2022-10-23T19:08:56.538Z,10.30
2022-10-23T19:11:26.551Z,12.05
2022-10-23T19:13:54.493Z,12.15
2022-10-23T19:16:25.727Z,11.55
2022-10-23T19:18:55.107Z,11.05
2022-10-23T19:21:24.318Z,17.25
2022-10-23T19:23:52.289Z,10.80
2022-10-23T19:26:20.186Z,7.65
2022-10-23T19:28:49.515Z,15.27
2022-10-23T19:31:17.407Z,12.40
2022-10-23T19:33:45.318Z,9.18
2022-10-23T19:36:14.413Z,11.02
2022-10-23T19:38:42.759Z,13.23
2022-10-23T19:41:10.767Z,12.10
2022-10-23T19:43:38.712Z,10.18
2022-10-23T19:46:11.198Z,8.85
2022-10-23T19:48:43.390Z,9.13
2022-10-23T19:51:12.842Z,15.10
2022-10-23T19:53:41.977Z,12.40
2022-10-23T19:56:10.979Z,9.27
2022-10-23T19:58:41.132Z,11.57
2022-10-23T20:01:11.881Z,10.10
2022-10-23T20:03:40.265Z,9.55
2022-10-23T20:06:10.236Z,8.20
2022-10-23T20:08:38.169Z,8.07
2022-10-23T20:11:06.393Z,9.63
2022-10-23T20:13:34.667Z,9.25
2022-10-23T20:16:02.529Z,8.45
2022-10-23T20:18:31.899Z,10.18
2022-10-23T20:21:02.038Z,9.30
2022-10-23T20:23:30.150Z,8.27
2022-10-23T20:26:05.554Z,9.25
2022-10-23T20:28:35.834Z,7.78
2022-10-23T20:31:08.347Z,8.95
2022-10-23T20:33:37.839Z,10.85
2022-10-23T20:36:07.214Z,8.93
2022-10-23T20:38:35.195Z,8.13
2022-10-23T20:41:05.827Z,8.65
2022-10-23T20:43:34.035Z,10.90
2022-10-23T20:46:04.510Z,14.15
2022-10-23T20:48:35.274Z,12.02
2022-10-23T20:51:05.120Z,9.75
2022-10-23T20:53:33.061Z,10.77
2022-10-23T20:56:00.920Z,14.95
2022-10-23T20:58:28.828Z,10.40
2022-10-23T21:00:58.020Z,9.55
2022-10-23T21:03:26.126Z,10.43
2022-10-23T21:05:53.992Z,15.60
2022-10-23T21:08:23.289Z,10.70
2022-10-23T21:10:51.248Z,12.27
2022-10-23T21:13:19.257Z,12.27
2022-10-23T21:15:47.120Z,11.57
2022-10-23T21:18:33.571Z,9.23
2022-10-23T21:21:05.452Z,8.52
2022-10-23T21:23:34.695Z,15.02
2022-10-23T21:26:06.221Z,9.63
2022-10-23T21:28:35.442Z,9.60
2022-10-23T21:31:04.254Z,12.45
2022-10-23T21:33:32.262Z,10.52
2022-10-23T21:36:12.923Z,10.50
2022-10-23T21:38:43.057Z,10.15
2022-10-23T21:41:12.232Z,10.10
2022-10-23T21:43:40.165Z,8.73
2022-10-23T21:46:08.588Z,7.47
2022-10-23T21:48:36.483Z,9.85
2022-10-23T21:51:04.445Z,9.77
2022-10-23T21:53:32.379Z,8.98
2022-10-23T21:56:03.577Z,7.20
2022-10-23T21:58:31.461Z,8.10
2022-10-23T22:00:59.348Z,8.10
2022-10-23T22:03:27.269Z,7.05
2022-10-23T22:05:58.013Z,6.80
2022-10-23T22:08:25.939Z,9.18
2022-10-23T22:10:53.948Z,7.47
2022-10-23T22:13:23.153Z,8.65
2022-10-23T22:15:51.026Z,7.05
2022-10-23T22:18:18.890Z,9.02
2022-10-23T22:20:46.793Z,7.97
2022-10-23T22:23:14.666Z,6.32
2022-10-23T22:25:42.843Z,7.20
2022-10-23T22:28:10.698Z,7.63
2022-10-23T22:30:39.907Z,8.45
2022-10-23T22:33:07.818Z,7.55
2022-10-23T22:35:35.685Z,8.75
2022-10-23T22:38:03.535Z,6.38
2022-10-23T22:40:31.475Z,6.57
2022-10-23T22:43:00.150Z,7.22
2022-10-23T22:45:28.052Z,7.63
2022-10-23T22:47:57.350Z,6.95
2022-10-23T22:50:25.217Z,8.80
2022-10-23T22:52:53.367Z,7.35
2022-10-23T22:55:21.242Z,8.85
2022-10-23T22:57:49.091Z,8.63
2022-10-23T23:00:17.827Z,9.27
2022-10-23T23:02:45.705Z,8.30
2022-10-23T23:05:14.995Z,8.93
2022-10-23T23:07:43.168Z,8.70
2022-10-23T23:10:11.258Z,7.95
2022-10-23T23:12:39.129Z,9.48
2022-10-23T23:15:07.918Z,9.10
2022-10-23T23:17:35.818Z,8.73
2022-10-23T23:20:03.752Z,9.25
2022-10-23T23:22:32.944Z,8.82
2022-10-23T23:25:00.859Z,8.52
2022-10-23T23:27:28.712Z,8.80
2022-10-23T23:29:57.737Z,8.95
2022-10-23T23:32:25.590Z,8.38
2022-10-23T23:34:53.455Z,8.10
2022-10-23T23:37:21.333Z,8.98
2022-10-23T23:39:50.627Z,9.98
2022-10-23T23:42:18.571Z,7.95
2022-10-23T23:44:55.967Z,8.13
2022-10-23T23:47:30.865Z,8.18
2022-10-23T23:49:58.827Z,7.90
2022-10-23T23:52:26.740Z,8.27
2022-10-23T23:54:56.189Z,8.98
2022-10-23T23:57:24.181Z,8.18
2022-10-23T23:59:52.454Z,8.20
